sensor_id;sensor_type;location;lat;lon;timestamp;P1;P2;P0
72023;PMS5003;59889;50.700;5.440;2024-01-30T00:01:52;10;10;
72023;PMS5003;59889;50.700;5.440;2024-01-30T00:04:17;8;8;
72023;PMS5003;59889;50.700;5.440;2024-01-30T00:06:42;12;11;
72023;PMS5003;59889;50.700;5.440;2024-01-30T00:09:07;8;8;
72023;PMS5003;59889;50.700;5.440;2024-01-30T00:11:32;11;10;
72023;PMS5003;59889;50.700;5.440;2024-01-30T00:13:57;9;9;
72023;PMS5003;59889;50.700;5.440;2024-01-30T00:16:23;10;9;
72023;PMS5003;59889;50.700;5.440;2024-01-30T00:18:48;7;7;
72023;PMS5003;59889;50.700;5.440;2024-01-30T00:21:14;10;9;
72023;PMS5003;59889;50.700;5.440;2024-01-30T00:23:38;10;10;
72023;PMS5003;59889;50.700;5.440;2024-01-30T00:26:03;8;7;
72023;PMS5003;59889;50.700;5.440;2024-01-30T00:28:28;9;9;
72023;PMS5003;59889;50.700;5.440;2024-01-30T00:30:53;9;9;
72023;PMS5003;59889;50.700;5.440;2024-01-30T00:33:18;10;10;
72023;PMS5003;59889;50.700;5.440;2024-01-30T00:35:43;8;7;
72023;PMS5003;59889;50.700;5.440;2024-01-30T00:38:08;11;9;
72023;PMS5003;59889;50.700;5.440;2024-01-30T00:40:33;11;10;
72023;PMS5003;59889;50.700;5.440;2024-01-30T00:42:59;9;9;
72023;PMS5003;59889;50.700;5.440;2024-01-30T00:45:24;11;10;
72023;PMS5003;59889;50.700;5.440;2024-01-30T00:47:49;9;8;
72023;PMS5003;59889;50.700;5.440;2024-01-30T00:50:14;8;7;
72023;PMS5003;59889;50.700;5.440;2024-01-30T00:52:39;9;8;
72023;PMS5003;59889;50.700;5.440;2024-01-30T00:55:04;8;8;
72023;PMS5003;59889;50.700;5.440;2024-01-30T00:57:29;10;10;
72023;PMS5003;59889;50.700;5.440;2024-01-30T00:59:54;9;8;
72023;PMS5003;59889;50.700;5.440;2024-01-30T01:02:19;11;11;
72023;PMS5003;59889;50.700;5.440;2024-01-30T01:04:44;8;8;
72023;PMS5003;59889;50.700;5.440;2024-01-30T01:07:10;8;8;
72023;PMS5003;59889;50.700;5.440;2024-01-30T01:09:35;10;10;
72023;PMS5003;59889;50.700;5.440;2024-01-30T01:12:01;9;9;
72023;PMS5003;59889;50.700;5.440;2024-01-30T01:14:25;10;7;
72023;PMS5003;59889;50.700;5.440;2024-01-30T01:16:50;8;8;
72023;PMS5003;59889;50.700;5.440;2024-01-30T01:19:15;8;7;
72023;PMS5003;59889;50.700;5.440;2024-01-30T01:21:40;11;11;
72023;PMS5003;59889;50.700;5.440;2024-01-30T01:24:06;10;9;
72023;PMS5003;59889;50.700;5.440;2024-01-30T01:26:31;10;9;
72023;PMS5003;59889;50.700;5.440;2024-01-30T01:28:56;9;7;
72023;PMS5003;59889;50.700;5.440;2024-01-30T01:31:21;9;8;
72023;PMS5003;59889;50.700;5.440;2024-01-30T01:33:47;9;8;
72023;PMS5003;59889;50.700;5.440;2024-01-30T01:36:11;9;8;
72023;PMS5003;59889;50.700;5.440;2024-01-30T01:38:36;9;9;
72023;PMS5003;59889;50.700;5.440;2024-01-30T01:41:01;11;9;
72023;PMS5003;59889;50.700;5.440;2024-01-30T01:43:26;8;8;
72023;PMS5003;59889;50.700;5.440;2024-01-30T01:45:53;12;12;
72023;PMS5003;59889;50.700;5.440;2024-01-30T01:48:17;8;8;
72023;PMS5003;59889;50.700;5.440;2024-01-30T01:50:42;11;10;
72023;PMS5003;59889;50.700;5.440;2024-01-30T01:53:07;8;7;
72023;PMS5003;59889;50.700;5.440;2024-01-30T01:55:32;7;7;
72023;PMS5003;59889;50.700;5.440;2024-01-30T01:57:57;7;7;
72023;PMS5003;59889;50.700;5.440;2024-01-30T02:00:23;8;8;
72023;PMS5003;59889;50.700;5.440;2024-01-30T02:02:47;9;8;
72023;PMS5003;59889;50.700;5.440;2024-01-30T02:05:12;9;8;
72023;PMS5003;59889;50.700;5.440;2024-01-30T02:07:38;7;7;
72023;PMS5003;59889;50.700;5.440;2024-01-30T02:10:03;8;8;
72023;PMS5003;59889;50.700;5.440;2024-01-30T02:12:28;9;9;
72023;PMS5003;59889;50.700;5.440;2024-01-30T02:14:54;9;8;
72023;PMS5003;59889;50.700;5.440;2024-01-30T02:17:18;7;7;
72023;PMS5003;59889;50.700;5.440;2024-01-30T02:19:44;8;8;
72023;PMS5003;59889;50.700;5.440;2024-01-30T02:22:09;11;10;
72023;PMS5003;59889;50.700;5.440;2024-01-30T02:24:34;10;8;
72023;PMS5003;59889;50.700;5.440;2024-01-30T02:26:59;9;9;
72023;PMS5003;59889;50.700;5.440;2024-01-30T02:29:24;8;7;
72023;PMS5003;59889;50.700;5.440;2024-01-30T02:31:49;6;6;
72023;PMS5003;59889;50.700;5.440;2024-01-30T02:34:14;10;8;
72023;PMS5003;59889;50.700;5.440;2024-01-30T02:36:42;9;8;
72023;PMS5003;59889;50.700;5.440;2024-01-30T02:39:04;8;8;
72023;PMS5003;59889;50.700;5.440;2024-01-30T02:41:30;8;6;
72023;PMS5003;59889;50.700;5.440;2024-01-30T02:43:54;8;8;
72023;PMS5003;59889;50.700;5.440;2024-01-30T02:46:19;8;8;
72023;PMS5003;59889;50.700;5.440;2024-01-30T02:48:44;8;8;
72023;PMS5003;59889;50.700;5.440;2024-01-30T02:51:11;9;8;
72023;PMS5003;59889;50.700;5.440;2024-01-30T02:53:35;7;7;
72023;PMS5003;59889;50.700;5.440;2024-01-30T02:56:00;8;8;
72023;PMS5003;59889;50.700;5.440;2024-01-30T02:58:25;7;6;
72023;PMS5003;59889;50.700;5.440;2024-01-30T03:00:50;9;8;
72023;PMS5003;59889;50.700;5.440;2024-01-30T03:03:15;8;7;
72023;PMS5003;59889;50.700;5.440;2024-01-30T03:05:40;10;9;
72023;PMS5003;59889;50.700;5.440;2024-01-30T03:08:05;9;9;
72023;PMS5003;59889;50.700;5.440;2024-01-30T03:10:30;8;8;
72023;PMS5003;59889;50.700;5.440;2024-01-30T03:12:55;6;6;
72023;PMS5003;59889;50.700;5.440;2024-01-30T03:15:20;10;8;
72023;PMS5003;59889;50.700;5.440;2024-01-30T03:17:45;9;7;
72023;PMS5003;59889;50.700;5.440;2024-01-30T03:20:11;8;7;
72023;PMS5003;59889;50.700;5.440;2024-01-30T03:22:35;9;8;
72023;PMS5003;59889;50.700;5.440;2024-01-30T03:25:01;6;6;
72023;PMS5003;59889;50.700;5.440;2024-01-30T03:27:26;6;6;
72023;PMS5003;59889;50.700;5.440;2024-01-30T03:29:51;8;7;
72023;PMS5003;59889;50.700;5.440;2024-01-30T03:32:17;11;9;
72023;PMS5003;59889;50.700;5.440;2024-01-30T03:34:41;9;9;
72023;PMS5003;59889;50.700;5.440;2024-01-30T03:37:06;8;6;
72023;PMS5003;59889;50.700;5.440;2024-01-30T03:39:31;7;7;
72023;PMS5003;59889;50.700;5.440;2024-01-30T03:41:56;8;7;
72023;PMS5003;59889;50.700;5.440;2024-01-30T03:44:21;7;6;
72023;PMS5003;59889;50.700;5.440;2024-01-30T03:46:47;6;6;
72023;PMS5003;59889;50.700;5.440;2024-01-30T03:49:12;7;7;
72023;PMS5003;59889;50.700;5.440;2024-01-30T03:51:37;7;7;
72023;PMS5003;59889;50.700;5.440;2024-01-30T03:54:02;7;7;
72023;PMS5003;59889;50.700;5.440;2024-01-30T03:56:27;7;7;
72023;PMS5003;59889;50.700;5.440;2024-01-30T03:58:52;7;7;
72023;PMS5003;59889;50.700;5.440;2024-01-30T04:01:17;8;8;
72023;PMS5003;59889;50.700;5.440;2024-01-30T04:03:42;9;8;
72023;PMS5003;59889;50.700;5.440;2024-01-30T04:06:07;8;7;
72023;PMS5003;59889;50.700;5.440;2024-01-30T04:08:33;7;7;
72023;PMS5003;59889;50.700;5.440;2024-01-30T04:10:58;7;6;
72023;PMS5003;59889;50.700;5.440;2024-01-30T04:13:23;8;8;
72023;PMS5003;59889;50.700;5.440;2024-01-30T04:15:48;6;6;
72023;PMS5003;59889;50.700;5.440;2024-01-30T04:18:14;7;7;
72023;PMS5003;59889;50.700;5.440;2024-01-30T04:20:38;8;7;
72023;PMS5003;59889;50.700;5.440;2024-01-30T04:23:04;7;7;
72023;PMS5003;59889;50.700;5.440;2024-01-30T04:25:29;7;7;
72023;PMS5003;59889;50.700;5.440;2024-01-30T04:27:54;9;8;
72023;PMS5003;59889;50.700;5.440;2024-01-30T04:30:19;9;7;
72023;PMS5003;59889;50.700;5.440;2024-01-30T04:32:45;8;8;
72023;PMS5003;59889;50.700;5.440;2024-01-30T04:35:10;7;7;
72023;PMS5003;59889;50.700;5.440;2024-01-30T04:37:35;8;8;
72023;PMS5003;59889;50.700;5.440;2024-01-30T04:40:01;8;7;
72023;PMS5003;59889;50.700;5.440;2024-01-30T04:42:26;9;8;
72023;PMS5003;59889;50.700;5.440;2024-01-30T04:44:51;6;6;
72023;PMS5003;59889;50.700;5.440;2024-01-30T04:47:16;9;7;
72023;PMS5003;59889;50.700;5.440;2024-01-30T04:49:42;11;9;
72023;PMS5003;59889;50.700;5.440;2024-01-30T04:52:07;9;8;
72023;PMS5003;59889;50.700;5.440;2024-01-30T04:54:32;9;9;
72023;PMS5003;59889;50.700;5.440;2024-01-30T04:56:57;8;7;
72023;PMS5003;59889;50.700;5.440;2024-01-30T04:59:23;10;9;
72023;PMS5003;59889;50.700;5.440;2024-01-30T05:01:48;12;10;
72023;PMS5003;59889;50.700;5.440;2024-01-30T05:04:13;9;9;
72023;PMS5003;59889;50.700;5.440;2024-01-30T05:06:38;9;9;
72023;PMS5003;59889;50.700;5.440;2024-01-30T05:09:03;11;9;
72023;PMS5003;59889;50.700;5.440;2024-01-30T05:11:28;11;10;
72023;PMS5003;59889;50.700;5.440;2024-01-30T05:13:53;12;11;
72023;PMS5003;59889;50.700;5.440;2024-01-30T05:16:19;24;21;
72023;PMS5003;59889;50.700;5.440;2024-01-30T05:18:44;24;22;
72023;PMS5003;59889;50.700;5.440;2024-01-30T05:21:10;22;19;
72023;PMS5003;59889;50.700;5.440;2024-01-30T05:23:36;20;16;
72023;PMS5003;59889;50.700;5.440;2024-01-30T05:26:01;18;17;
72023;PMS5003;59889;50.700;5.440;2024-01-30T05:28:26;24;18;
72023;PMS5003;59889;50.700;5.440;2024-01-30T05:30:51;19;16;
72023;PMS5003;59889;50.700;5.440;2024-01-30T05:33:17;19;17;
72023;PMS5003;59889;50.700;5.440;2024-01-30T05:35:42;14;13;
72023;PMS5003;59889;50.700;5.440;2024-01-30T05:38:08;19;17;
72023;PMS5003;59889;50.700;5.440;2024-01-30T05:40:33;17;17;
72023;PMS5003;59889;50.700;5.440;2024-01-30T05:42:59;16;15;
72023;PMS5003;59889;50.700;5.440;2024-01-30T05:45:25;16;13;
72023;PMS5003;59889;50.700;5.440;2024-01-30T05:47:50;12;12;
72023;PMS5003;59889;50.700;5.440;2024-01-30T05:50:16;21;16;
72023;PMS5003;59889;50.700;5.440;2024-01-30T05:52:41;16;15;
72023;PMS5003;59889;50.700;5.440;2024-01-30T05:55:07;13;13;
72023;PMS5003;59889;50.700;5.440;2024-01-30T05:57:32;14;12;
72023;PMS5003;59889;50.700;5.440;2024-01-30T05:59:58;19;17;
72023;PMS5003;59889;50.700;5.440;2024-01-30T06:02:23;16;14;
72023;PMS5003;59889;50.700;5.440;2024-01-30T06:04:48;16;13;
72023;PMS5003;59889;50.700;5.440;2024-01-30T06:07:14;13;12;
72023;PMS5003;59889;50.700;5.440;2024-01-30T06:09:39;13;13;
72023;PMS5003;59889;50.700;5.440;2024-01-30T06:12:05;15;12;
72023;PMS5003;59889;50.700;5.440;2024-01-30T06:14:30;12;12;
72023;PMS5003;59889;50.700;5.440;2024-01-30T06:16:56;12;11;
72023;PMS5003;59889;50.700;5.440;2024-01-30T06:19:21;12;12;
72023;PMS5003;59889;50.700;5.440;2024-01-30T06:21:46;14;13;
72023;PMS5003;59889;50.700;5.440;2024-01-30T06:24:17;13;13;
72023;PMS5003;59889;50.700;5.440;2024-01-30T06:26:37;14;12;
72023;PMS5003;59889;50.700;5.440;2024-01-30T06:29:02;10;10;
72023;PMS5003;59889;50.700;5.440;2024-01-30T06:31:28;11;10;
72023;PMS5003;59889;50.700;5.440;2024-01-30T06:33:53;13;12;
72023;PMS5003;59889;50.700;5.440;2024-01-30T06:36:18;11;11;
72023;PMS5003;59889;50.700;5.440;2024-01-30T06:38:43;12;11;
72023;PMS5003;59889;50.700;5.440;2024-01-30T06:41:09;13;12;
72023;PMS5003;59889;50.700;5.440;2024-01-30T06:43:34;16;11;
72023;PMS5003;59889;50.700;5.440;2024-01-30T06:45:59;14;11;
72023;PMS5003;59889;50.700;5.440;2024-01-30T06:48:25;15;14;
72023;PMS5003;59889;50.700;5.440;2024-01-30T06:50:52;14;11;
72023;PMS5003;59889;50.700;5.440;2024-01-30T06:53:16;11;9;
72023;PMS5003;59889;50.700;5.440;2024-01-30T06:55:41;10;10;
72023;PMS5003;59889;50.700;5.440;2024-01-30T06:58:07;12;10;
72023;PMS5003;59889;50.700;5.440;2024-01-30T07:00:32;12;11;
72023;PMS5003;59889;50.700;5.440;2024-01-30T07:02:57;11;9;
72023;PMS5003;59889;50.700;5.440;2024-01-30T07:05:22;14;9;
72023;PMS5003;59889;50.700;5.440;2024-01-30T07:07:47;10;10;
72023;PMS5003;59889;50.700;5.440;2024-01-30T07:10:13;13;12;
72023;PMS5003;59889;50.700;5.440;2024-01-30T07:12:38;12;10;
72023;PMS5003;59889;50.700;5.440;2024-01-30T07:15:04;10;10;
72023;PMS5003;59889;50.700;5.440;2024-01-30T07:17:29;15;15;
72023;PMS5003;59889;50.700;5.440;2024-01-30T07:19:54;13;11;
72023;PMS5003;59889;50.700;5.440;2024-01-30T07:22:19;12;9;
72023;PMS5003;59889;50.700;5.440;2024-01-30T07:24:45;12;8;
72023;PMS5003;59889;50.700;5.440;2024-01-30T07:27:11;11;10;
72023;PMS5003;59889;50.700;5.440;2024-01-30T07:29:35;9;9;
72023;PMS5003;59889;50.700;5.440;2024-01-30T07:32:01;11;11;
72023;PMS5003;59889;50.700;5.440;2024-01-30T07:34:26;13;12;
72023;PMS5003;59889;50.700;5.440;2024-01-30T07:36:51;12;12;
72023;PMS5003;59889;50.700;5.440;2024-01-30T07:39:17;9;9;
72023;PMS5003;59889;50.700;5.440;2024-01-30T07:41:42;11;10;
72023;PMS5003;59889;50.700;5.440;2024-01-30T07:44:07;9;9;
72023;PMS5003;59889;50.700;5.440;2024-01-30T07:46:32;10;10;
72023;PMS5003;59889;50.700;5.440;2024-01-30T07:48:58;13;11;
72023;PMS5003;59889;50.700;5.440;2024-01-30T07:51:23;12;11;
72023;PMS5003;59889;50.700;5.440;2024-01-30T07:53:51;11;9;
72023;PMS5003;59889;50.700;5.440;2024-01-30T07:56:13;11;11;
72023;PMS5003;59889;50.700;5.440;2024-01-30T07:58:38;9;8;
72023;PMS5003;59889;50.700;5.440;2024-01-30T08:01:03;12;10;
72023;PMS5003;59889;50.700;5.440;2024-01-30T08:03:28;10;10;
72023;PMS5003;59889;50.700;5.440;2024-01-30T08:05:54;9;9;
72023;PMS5003;59889;50.700;5.440;2024-01-30T08:08:19;12;9;
72023;PMS5003;59889;50.700;5.440;2024-01-30T08:10:44;8;8;
72023;PMS5003;59889;50.700;5.440;2024-01-30T08:13:09;11;11;
72023;PMS5003;59889;50.700;5.440;2024-01-30T08:15:34;9;9;
72023;PMS5003;59889;50.700;5.440;2024-01-30T08:18:00;11;9;
72023;PMS5003;59889;50.700;5.440;2024-01-30T08:20:25;10;9;
72023;PMS5003;59889;50.700;5.440;2024-01-30T08:22:50;8;7;
72023;PMS5003;59889;50.700;5.440;2024-01-30T08:25:15;9;8;
72023;PMS5003;59889;50.700;5.440;2024-01-30T08:27:40;9;9;
72023;PMS5003;59889;50.700;5.440;2024-01-30T08:30:06;9;8;
72023;PMS5003;59889;50.700;5.440;2024-01-30T08:32:31;8;8;
72023;PMS5003;59889;50.700;5.440;2024-01-30T08:34:56;10;7;
72023;PMS5003;59889;50.700;5.440;2024-01-30T08:37:21;9;8;
72023;PMS5003;59889;50.700;5.440;2024-01-30T08:39:46;10;10;
72023;PMS5003;59889;50.700;5.440;2024-01-30T08:42:12;10;9;
72023;PMS5003;59889;50.700;5.440;2024-01-30T08:44:37;8;8;
72023;PMS5003;59889;50.700;5.440;2024-01-30T08:47:02;9;8;
72023;PMS5003;59889;50.700;5.440;2024-01-30T08:49:27;9;8;
72023;PMS5003;59889;50.700;5.440;2024-01-30T08:51:52;8;8;
72023;PMS5003;59889;50.700;5.440;2024-01-30T08:54:17;9;7;
72023;PMS5003;59889;50.700;5.440;2024-01-30T08:56:43;11;10;
72023;PMS5003;59889;50.700;5.440;2024-01-30T08:59:07;9;9;
72023;PMS5003;59889;50.700;5.440;2024-01-30T09:01:32;9;8;
72023;PMS5003;59889;50.700;5.440;2024-01-30T09:03:57;9;9;
72023;PMS5003;59889;50.700;5.440;2024-01-30T09:06:22;8;8;
72023;PMS5003;59889;50.700;5.440;2024-01-30T09:08:48;9;8;
72023;PMS5003;59889;50.700;5.440;2024-01-30T09:11:13;7;7;
72023;PMS5003;59889;50.700;5.440;2024-01-30T09:13:38;8;7;
72023;PMS5003;59889;50.700;5.440;2024-01-30T09:16:03;10;9;
72023;PMS5003;59889;50.700;5.440;2024-01-30T09:18:28;8;8;
72023;PMS5003;59889;50.700;5.440;2024-01-30T09:20:53;7;7;
72023;PMS5003;59889;50.700;5.440;2024-01-30T09:23:19;9;7;
72023;PMS5003;59889;50.700;5.440;2024-01-30T09:25:44;8;7;
72023;PMS5003;59889;50.700;5.440;2024-01-30T09:28:09;10;8;
72023;PMS5003;59889;50.700;5.440;2024-01-30T09:30:34;7;7;
72023;PMS5003;59889;50.700;5.440;2024-01-30T09:32:59;10;8;
72023;PMS5003;59889;50.700;5.440;2024-01-30T09:35:24;9;9;
72023;PMS5003;59889;50.700;5.440;2024-01-30T09:37:49;8;8;
72023;PMS5003;59889;50.700;5.440;2024-01-30T09:40:14;8;8;
72023;PMS5003;59889;50.700;5.440;2024-01-30T09:42:40;7;7;
72023;PMS5003;59889;50.700;5.440;2024-01-30T09:45:06;6;6;
72023;PMS5003;59889;50.700;5.440;2024-01-30T09:47:31;8;7;
72023;PMS5003;59889;50.700;5.440;2024-01-30T09:49:55;9;9;
72023;PMS5003;59889;50.700;5.440;2024-01-30T09:52:20;11;10;
72023;PMS5003;59889;50.700;5.440;2024-01-30T09:54:45;8;8;
72023;PMS5003;59889;50.700;5.440;2024-01-30T09:57:11;8;8;
72023;PMS5003;59889;50.700;5.440;2024-01-30T09:59:35;8;8;
72023;PMS5003;59889;50.700;5.440;2024-01-30T10:02:00;8;8;
72023;PMS5003;59889;50.700;5.440;2024-01-30T10:04:26;9;8;
72023;PMS5003;59889;50.700;5.440;2024-01-30T10:06:51;8;8;
72023;PMS5003;59889;50.700;5.440;2024-01-30T10:09:16;11;10;
72023;PMS5003;59889;50.700;5.440;2024-01-30T10:11:41;7;7;
72023;PMS5003;59889;50.700;5.440;2024-01-30T10:14:06;6;6;
72023;PMS5003;59889;50.700;5.440;2024-01-30T10:16:31;10;8;
72023;PMS5003;59889;50.700;5.440;2024-01-30T10:18:56;9;7;
72023;PMS5003;59889;50.700;5.440;2024-01-30T10:21:22;8;8;
72023;PMS5003;59889;50.700;5.440;2024-01-30T10:23:46;8;6;
72023;PMS5003;59889;50.700;5.440;2024-01-30T10:26:11;8;8;
72023;PMS5003;59889;50.700;5.440;2024-01-30T10:28:37;7;7;
72023;PMS5003;59889;50.700;5.440;2024-01-30T10:31:02;8;7;
72023;PMS5003;59889;50.700;5.440;2024-01-30T10:33:27;7;7;
72023;PMS5003;59889;50.700;5.440;2024-01-30T10:35:52;7;7;
72023;PMS5003;59889;50.700;5.440;2024-01-30T10:38:17;8;6;
72023;PMS5003;59889;50.700;5.440;2024-01-30T10:40:42;7;7;
72023;PMS5003;59889;50.700;5.440;2024-01-30T10:43:07;8;7;
72023;PMS5003;59889;50.700;5.440;2024-01-30T10:45:32;7;7;
72023;PMS5003;59889;50.700;5.440;2024-01-30T10:47:57;9;9;
72023;PMS5003;59889;50.700;5.440;2024-01-30T10:50:22;6;6;
72023;PMS5003;59889;50.700;5.440;2024-01-30T10:52:48;7;6;
72023;PMS5003;59889;50.700;5.440;2024-01-30T10:55:13;8;6;
72023;PMS5003;59889;50.700;5.440;2024-01-30T10:57:38;7;6;
72023;PMS5003;59889;50.700;5.440;2024-01-30T11:00:04;9;7;
72023;PMS5003;59889;50.700;5.440;2024-01-30T11:02:28;8;8;
72023;PMS5003;59889;50.700;5.440;2024-01-30T11:04:55;8;7;
72023;PMS5003;59889;50.700;5.440;2024-01-30T11:07:23;6;6;
72023;PMS5003;59889;50.700;5.440;2024-01-30T11:09:49;8;8;
72023;PMS5003;59889;50.700;5.440;2024-01-30T11:12:12;7;7;
72023;PMS5003;59889;50.700;5.440;2024-01-30T11:14:34;9;8;
72023;PMS5003;59889;50.700;5.440;2024-01-30T11:16:59;8;7;
72023;PMS5003;59889;50.700;5.440;2024-01-30T11:19:24;8;7;
72023;PMS5003;59889;50.700;5.440;2024-01-30T11:21:50;9;7;
72023;PMS5003;59889;50.700;5.440;2024-01-30T11:24:14;7;7;
72023;PMS5003;59889;50.700;5.440;2024-01-30T11:26:39;8;7;
72023;PMS5003;59889;50.700;5.440;2024-01-30T11:29:07;10;8;
72023;PMS5003;59889;50.700;5.440;2024-01-30T11:31:30;8;7;
72023;PMS5003;59889;50.700;5.440;2024-01-30T11:33:56;6;6;
72023;PMS5003;59889;50.700;5.440;2024-01-30T11:36:21;9;8;
72023;PMS5003;59889;50.700;5.440;2024-01-30T11:38:45;7;7;
72023;PMS5003;59889;50.700;5.440;2024-01-30T11:41:10;8;7;
72023;PMS5003;59889;50.700;5.440;2024-01-30T11:43:36;8;8;
72023;PMS5003;59889;50.700;5.440;2024-01-30T11:46:01;7;7;
72023;PMS5003;59889;50.700;5.440;2024-01-30T11:48:26;7;7;
72023;PMS5003;59889;50.700;5.440;2024-01-30T11:50:51;10;9;
72023;PMS5003;59889;50.700;5.440;2024-01-30T11:53:16;10;8;
72023;PMS5003;59889;50.700;5.440;2024-01-30T11:55:41;7;7;
72023;PMS5003;59889;50.700;5.440;2024-01-30T11:58:06;6;6;
72023;PMS5003;59889;50.700;5.440;2024-01-30T12:00:31;7;7;
72023;PMS5003;59889;50.700;5.440;2024-01-30T12:02:56;7;7;
72023;PMS5003;59889;50.700;5.440;2024-01-30T12:05:21;9;8;
72023;PMS5003;59889;50.700;5.440;2024-01-30T12:07:46;9;8;
72023;PMS5003;59889;50.700;5.440;2024-01-30T12:10:12;9;8;
72023;PMS5003;59889;50.700;5.440;2024-01-30T12:12:36;9;8;
72023;PMS5003;59889;50.700;5.440;2024-01-30T12:15:02;10;9;
72023;PMS5003;59889;50.700;5.440;2024-01-30T12:17:28;6;6;
72023;PMS5003;59889;50.700;5.440;2024-01-30T12:22:17;9;9;
72023;PMS5003;59889;50.700;5.440;2024-01-30T12:24:42;8;7;
72023;PMS5003;59889;50.700;5.440;2024-01-30T12:27:07;5;5;
72023;PMS5003;59889;50.700;5.440;2024-01-30T12:29:32;7;6;
72023;PMS5003;59889;50.700;5.440;2024-01-30T12:31:57;8;8;
72023;PMS5003;59889;50.700;5.440;2024-01-30T12:34:24;9;8;
72023;PMS5003;59889;50.700;5.440;2024-01-30T12:36:47;9;8;
72023;PMS5003;59889;50.700;5.440;2024-01-30T12:39:13;12;9;
72023;PMS5003;59889;50.700;5.440;2024-01-30T12:41:38;12;10;
72023;PMS5003;59889;50.700;5.440;2024-01-30T12:44:03;8;6;
72023;PMS5003;59889;50.700;5.440;2024-01-30T12:46:29;9;9;
72023;PMS5003;59889;50.700;5.440;2024-01-30T12:48:53;7;6;
72023;PMS5003;59889;50.700;5.440;2024-01-30T12:51:18;6;5;
72023;PMS5003;59889;50.700;5.440;2024-01-30T12:53:43;6;6;
72023;PMS5003;59889;50.700;5.440;2024-01-30T12:56:08;9;8;
72023;PMS5003;59889;50.700;5.440;2024-01-30T12:58:33;10;9;
72023;PMS5003;59889;50.700;5.440;2024-01-30T13:00:58;7;6;
72023;PMS5003;59889;50.700;5.440;2024-01-30T13:03:23;7;7;
72023;PMS5003;59889;50.700;5.440;2024-01-30T13:05:49;6;6;
72023;PMS5003;59889;50.700;5.440;2024-01-30T13:08:14;6;6;
72023;PMS5003;59889;50.700;5.440;2024-01-30T13:10:40;8;7;
72023;PMS5003;59889;50.700;5.440;2024-01-30T13:13:04;6;6;
72023;PMS5003;59889;50.700;5.440;2024-01-30T13:15:29;7;7;
72023;PMS5003;59889;50.700;5.440;2024-01-30T13:17:54;6;5;
72023;PMS5003;59889;50.700;5.440;2024-01-30T13:20:19;8;7;
72023;PMS5003;59889;50.700;5.440;2024-01-30T13:22:44;9;7;
72023;PMS5003;59889;50.700;5.440;2024-01-30T13:25:09;8;8;
72023;PMS5003;59889;50.700;5.440;2024-01-30T13:27:35;8;7;
72023;PMS5003;59889;50.700;5.440;2024-01-30T13:29:59;10;9;
72023;PMS5003;59889;50.700;5.440;2024-01-30T13:32:25;7;7;
72023;PMS5003;59889;50.700;5.440;2024-01-30T13:34:50;8;7;
72023;PMS5003;59889;50.700;5.440;2024-01-30T13:37:15;7;7;
72023;PMS5003;59889;50.700;5.440;2024-01-30T13:39:40;7;7;
72023;PMS5003;59889;50.700;5.440;2024-01-30T13:42:05;12;10;
72023;PMS5003;59889;50.700;5.440;2024-01-30T13:44:30;10;8;
72023;PMS5003;59889;50.700;5.440;2024-01-30T13:46:56;9;8;
72023;PMS5003;59889;50.700;5.440;2024-01-30T13:49:20;9;8;
72023;PMS5003;59889;50.700;5.440;2024-01-30T13:51:45;10;9;
72023;PMS5003;59889;50.700;5.440;2024-01-30T13:54:11;9;8;
72023;PMS5003;59889;50.700;5.440;2024-01-30T13:56:36;8;8;
72023;PMS5003;59889;50.700;5.440;2024-01-30T13:59:01;7;6;
72023;PMS5003;59889;50.700;5.440;2024-01-30T14:01:26;8;7;
72023;PMS5003;59889;50.700;5.440;2024-01-30T14:03:51;9;8;
72023;PMS5003;59889;50.700;5.440;2024-01-30T14:06:17;8;7;
72023;PMS5003;59889;50.700;5.440;2024-01-30T14:08:42;10;9;
72023;PMS5003;59889;50.700;5.440;2024-01-30T14:11:08;9;8;
72023;PMS5003;59889;50.700;5.440;2024-01-30T14:13:32;11;10;
72023;PMS5003;59889;50.700;5.440;2024-01-30T14:15:57;8;8;
72023;PMS5003;59889;50.700;5.440;2024-01-30T14:18:22;8;7;
72023;PMS5003;59889;50.700;5.440;2024-01-30T14:20:47;9;9;
72023;PMS5003;59889;50.700;5.440;2024-01-30T14:23:12;7;7;
72023;PMS5003;59889;50.700;5.440;2024-01-30T14:25:37;6;6;
72023;PMS5003;59889;50.700;5.440;2024-01-30T14:28:02;6;6;
72023;PMS5003;59889;50.700;5.440;2024-01-30T14:30:27;8;8;
72023;PMS5003;59889;50.700;5.440;2024-01-30T14:32:52;7;7;
72023;PMS5003;59889;50.700;5.440;2024-01-30T14:35:18;7;6;
72023;PMS5003;59889;50.700;5.440;2024-01-30T14:37:43;5;5;
72023;PMS5003;59889;50.700;5.440;2024-01-30T14:40:08;6;6;
72023;PMS5003;59889;50.700;5.440;2024-01-30T14:42:33;8;8;
72023;PMS5003;59889;50.700;5.440;2024-01-30T14:44:58;7;7;
72023;PMS5003;59889;50.700;5.440;2024-01-30T14:47:23;5;5;
72023;PMS5003;59889;50.700;5.440;2024-01-30T14:49:48;7;6;
72023;PMS5003;59889;50.700;5.440;2024-01-30T14:52:13;6;6;
72023;PMS5003;59889;50.700;5.440;2024-01-30T14:54:38;6;5;
72023;PMS5003;59889;50.700;5.440;2024-01-30T14:57:04;5;5;
72023;PMS5003;59889;50.700;5.440;2024-01-30T14:59:29;6;6;
72023;PMS5003;59889;50.700;5.440;2024-01-30T15:01:54;5;5;
72023;PMS5003;59889;50.700;5.440;2024-01-30T15:04:19;6;5;
72023;PMS5003;59889;50.700;5.440;2024-01-30T15:06:44;5;5;
72023;PMS5003;59889;50.700;5.440;2024-01-30T15:09:09;9;7;
72023;PMS5003;59889;50.700;5.440;2024-01-30T15:11:35;6;6;
72023;PMS5003;59889;50.700;5.440;2024-01-30T15:13:59;7;7;
72023;PMS5003;59889;50.700;5.440;2024-01-30T15:16:24;6;6;
72023;PMS5003;59889;50.700;5.440;2024-01-30T15:18:49;6;5;
72023;PMS5003;59889;50.700;5.440;2024-01-30T15:21:14;8;7;
72023;PMS5003;59889;50.700;5.440;2024-01-30T15:23:39;8;5;
72023;PMS5003;59889;50.700;5.440;2024-01-30T15:26:04;6;6;
72023;PMS5003;59889;50.700;5.440;2024-01-30T15:28:35;6;6;
72023;PMS5003;59889;50.700;5.440;2024-01-30T15:30:55;6;6;
72023;PMS5003;59889;50.700;5.440;2024-01-30T15:33:20;5;4;
72023;PMS5003;59889;50.700;5.440;2024-01-30T15:35:45;5;4;
72023;PMS5003;59889;50.700;5.440;2024-01-30T15:38:11;4;4;
72023;PMS5003;59889;50.700;5.440;2024-01-30T15:40:35;6;4;
72023;PMS5003;59889;50.700;5.440;2024-01-30T15:43:00;5;5;
72023;PMS5003;59889;50.700;5.440;2024-01-30T15:45:25;4;4;
72023;PMS5003;59889;50.700;5.440;2024-01-30T15:47:50;5;5;
72023;PMS5003;59889;50.700;5.440;2024-01-30T15:50:15;4;4;
72023;PMS5003;59889;50.700;5.440;2024-01-30T15:52:40;4;4;
72023;PMS5003;59889;50.700;5.440;2024-01-30T15:55:06;4;4;
72023;PMS5003;59889;50.700;5.440;2024-01-30T15:57:31;6;6;
72023;PMS5003;59889;50.700;5.440;2024-01-30T15:59:56;5;5;
72023;PMS5003;59889;50.700;5.440;2024-01-30T16:02:21;5;5;
72023;PMS5003;59889;50.700;5.440;2024-01-30T16:04:46;4;4;
72023;PMS5003;59889;50.700;5.440;2024-01-30T16:07:11;4;4;
72023;PMS5003;59889;50.700;5.440;2024-01-30T16:09:36;4;4;
72023;PMS5003;59889;50.700;5.440;2024-01-30T16:12:02;5;4;
72023;PMS5003;59889;50.700;5.440;2024-01-30T16:14:26;4;4;
72023;PMS5003;59889;50.700;5.440;2024-01-30T16:16:51;5;5;
72023;PMS5003;59889;50.700;5.440;2024-01-30T16:19:16;4;4;
72023;PMS5003;59889;50.700;5.440;2024-01-30T16:21:41;5;4;
72023;PMS5003;59889;50.700;5.440;2024-01-30T16:24:06;3;3;
72023;PMS5003;59889;50.700;5.440;2024-01-30T16:26:32;5;4;
72023;PMS5003;59889;50.700;5.440;2024-01-30T16:28:57;4;3;
72023;PMS5003;59889;50.700;5.440;2024-01-30T16:31:22;5;5;